createdAt,value
2018-10-18T00:00:07.312Z,88.88
2018-10-18T00:01:17.884Z,88.74
2018-10-18T00:02:27.950Z,88.79
2018-10-18T00:03:37.793Z,88.79
2018-10-18T00:04:47.612Z,88.84
2018-10-18T00:05:57.835Z,88.88
2018-10-18T00:07:09.424Z,88.74
2018-10-18T00:08:19.848Z,88.74
2018-10-18T00:09:29.937Z,88.84
2018-10-18T00:10:40.263Z,88.79
2018-10-18T00:11:50.419Z,88.84
2018-10-18T00:13:00.918Z,88.74
2018-10-18T00:14:11.172Z,88.65
2018-10-18T00:15:22.360Z,88.65
2018-10-18T00:16:32.449Z,88.74
2018-10-18T00:17:42.325Z,88.74
2018-10-18T00:18:52.395Z,88.74
2018-10-18T00:20:02.531Z,89.07
2018-10-18T00:21:13.120Z,89.17
2018-10-18T00:22:23.003Z,89.32
2018-10-18T00:23:32.839Z,89.07
2018-10-18T00:24:42.920Z,88.74
2018-10-18T00:25:53.093Z,88.79
2018-10-18T00:27:03.005Z,88.79
2018-10-18T00:28:13.090Z,88.93
2018-10-18T00:29:22.906Z,88.74
2018-10-18T00:30:33.044Z,88.55
2018-10-18T00:31:43.280Z,88.74
2018-10-18T00:32:53.366Z,88.74
2018-10-18T00:34:03.643Z,88.79
2018-10-18T00:35:13.792Z,88.84
2018-10-18T00:36:25.079Z,88.93
2018-10-18T00:37:35.376Z,88.65
2018-10-18T00:38:45.462Z,89.12
2018-10-18T00:39:55.822Z,88.93
2018-10-18T00:41:06.758Z,89.12
2018-10-18T00:42:17.553Z,88.74
2018-10-18T00:43:27.483Z,88.74
2018-10-18T00:44:37.598Z,89.12
2018-10-18T00:45:47.683Z,89.12
2018-10-18T00:46:57.798Z,89.12
2018-10-18T00:48:10.886Z,89.12
2018-10-18T00:49:21.590Z,89.03
2018-10-18T00:50:31.429Z,89.12
2018-10-18T00:51:41.714Z,89.12
2018-10-18T00:52:52.076Z,89.12
2018-10-18T00:54:02.514Z,89.12
2018-10-18T00:55:13.262Z,88.84
2018-10-18T00:56:23.583Z,89.12
2018-10-18T00:57:33.422Z,89.32
2018-10-18T00:58:43.960Z,89.22
2018-10-18T00:59:54.064Z,89.22
2018-10-18T01:01:06.103Z,88.93
2018-10-18T01:02:16.158Z,89.03
2018-10-18T01:03:26.750Z,89.22
2018-10-18T01:04:37.059Z,89.12
2018-10-18T01:05:47.205Z,89.12
2018-10-18T01:06:57.316Z,88.93
2018-10-18T01:08:07.598Z,89.32
2018-10-18T01:09:17.795Z,89.12
2018-10-18T01:10:27.636Z,89.12
2018-10-18T01:11:37.986Z,89.32
2018-10-18T01:12:48.556Z,89.32
2018-10-18T01:13:59.102Z,88.93
2018-10-18T01:15:09.854Z,89.03
2018-10-18T01:16:20.324Z,89.32
2018-10-18T01:17:31.027Z,88.74
2018-10-18T01:18:41.105Z,89.51
2018-10-18T01:19:51.428Z,89.32
2018-10-18T01:21:01.995Z,89.32
2018-10-18T01:22:13.035Z,89.51
2018-10-18T01:23:23.126Z,89.51
2018-10-18T01:24:33.438Z,89.03
2018-10-18T01:25:43.282Z,89.12
2018-10-18T01:26:53.354Z,89.32
2018-10-18T01:28:04.546Z,89.32
2018-10-18T01:29:14.132Z,89.32
2018-10-18T01:30:24.437Z,89.32
2018-10-18T01:31:35.273Z,89.12
2018-10-18T01:32:45.558Z,89.12
2018-10-18T01:33:55.793Z,89.22
2018-10-18T01:35:06.106Z,89.12
2018-10-18T01:36:16.713Z,88.93
2018-10-18T01:37:27.131Z,89.32
2018-10-18T01:38:37.746Z,89.12
2018-10-18T01:39:47.953Z,88.93
2018-10-18T01:40:58.266Z,89.12
2018-10-18T01:42:08.124Z,89.51
2018-10-18T01:43:18.850Z,89.32
2018-10-18T01:44:28.952Z,89.32
2018-10-18T01:45:39.322Z,88.84
2018-10-18T01:46:49.365Z,88.93
2018-10-18T01:47:59.611Z,89.32
2018-10-18T01:49:10.067Z,89.03
2018-10-18T01:50:20.589Z,89.12
2018-10-18T01:51:30.418Z,89.12
2018-10-18T01:52:40.768Z,89.12
2018-10-18T01:53:51.066Z,89.12
2018-10-18T01:55:01.542Z,88.93
2018-10-18T01:56:12.084Z,88.84
2018-10-18T01:57:22.716Z,88.74
2018-10-18T01:58:33.005Z,88.84
2018-10-18T01:59:43.115Z,88.93
2018-10-18T02:00:53.243Z,89.32
2018-10-18T02:02:03.507Z,89.32
2018-10-18T02:03:14.098Z,89.22
2018-10-18T02:04:24.174Z,89.03
2018-10-18T02:05:34.295Z,89.03
2018-10-18T02:06:44.372Z,89.32
2018-10-18T02:07:54.538Z,89.41
2018-10-18T02:09:04.832Z,89.12
2018-10-18T02:10:15.130Z,88.93
2018-10-18T02:11:24.661Z,89.12
2018-10-18T02:12:35.120Z,89.22
2018-10-18T02:13:46.056Z,88.93
2018-10-18T02:14:56.518Z,88.93
2018-10-18T02:16:06.784Z,88.84
2018-10-18T02:17:16.871Z,88.93
2018-10-18T02:18:27.214Z,88.93
2018-10-18T02:19:37.768Z,89.12
2018-10-18T02:21:03.204Z,89.12
2018-10-18T02:22:14.116Z,88.84
2018-10-18T02:23:23.940Z,88.74
2018-10-18T02:24:34.457Z,88.84
2018-10-18T02:25:45.369Z,88.93
2018-10-18T02:26:55.780Z,89.32
2018-10-18T02:28:08.407Z,89.41
2018-10-18T02:29:17.940Z,89.22
2018-10-18T02:30:28.030Z,89.03
2018-10-18T02:31:38.357Z,89.32
2018-10-18T02:32:49.101Z,89.32
2018-10-18T02:33:58.934Z,89.12
2018-10-18T02:35:09.235Z,89.41
2018-10-18T02:36:19.554Z,89.47
2018-10-18T02:37:30.218Z,89.18
2018-10-18T02:38:40.295Z,89.37
2018-10-18T02:39:50.815Z,89.37
2018-10-18T02:41:01.175Z,89.56
2018-10-18T02:42:11.388Z,89.47
2018-10-18T02:43:22.260Z,89.85
2018-10-18T02:44:32.553Z,89.65
2018-10-18T02:45:43.129Z,89.94
2018-10-18T02:46:53.407Z,89.8
2018-10-18T02:48:05.676Z,89.71
2018-10-18T02:49:16.702Z,89.71
2018-10-18T02:50:27.177Z,89.71
2018-10-18T02:51:37.907Z,89.71
2018-10-18T02:52:47.996Z,89.8
2018-10-18T02:53:58.129Z,89.71
2018-10-18T02:55:08.970Z,89.32
2018-10-18T02:56:19.149Z,89.47
2018-10-18T02:57:29.659Z,89.42
2018-10-18T02:58:40.320Z,89.51
2018-10-18T02:59:50.512Z,89.51
2018-10-18T03:01:00.653Z,89.28
2018-10-18T03:02:10.791Z,89.37
2018-10-18T03:34:50.099Z,83.61
2018-10-18T03:36:01.665Z,83.8
2018-10-18T03:37:12.452Z,84.19
2018-10-18T03:38:22.543Z,85.24
2018-10-18T03:39:32.824Z,86.1
2018-10-18T03:40:43.357Z,86.47
2018-10-18T03:41:53.242Z,86.86
2018-10-18T03:43:03.985Z,87.34
2018-10-18T03:44:14.289Z,87.72
2018-10-18T03:45:24.559Z,87.43
2018-10-18T03:46:34.695Z,88.05
2018-10-18T03:47:45.002Z,88.34
2018-10-18T03:48:55.075Z,88.72
2018-10-18T03:50:05.379Z,88.53
2018-10-18T03:51:15.923Z,88.62
2018-10-18T03:52:25.736Z,89.01
2018-10-18T03:53:35.822Z,88.72
2018-10-18T03:54:46.092Z,89.01
2018-10-18T03:55:56.390Z,89.01
2018-10-18T03:57:06.489Z,89.29
2018-10-18T03:58:16.606Z,89.2
2018-10-18T03:59:26.842Z,89.29
2018-10-18T04:00:37.434Z,88.86
2018-10-18T04:01:48.087Z,88.76
2018-10-18T04:02:58.155Z,88.76
2018-10-18T04:04:09.375Z,89.15
2018-10-18T04:05:19.491Z,88.76
2018-10-18T04:06:29.578Z,89.05
2018-10-18T04:07:39.672Z,88.76
2018-10-18T04:08:50.228Z,89.05
2018-10-18T04:10:00.529Z,89.15
2018-10-18T04:11:10.625Z,88.95
2018-10-18T04:12:21.013Z,88.86
2018-10-18T04:13:32.366Z,88.67
2018-10-18T04:14:42.750Z,88.67
2018-10-18T04:15:52.843Z,88.67
2018-10-18T04:17:02.939Z,89.05
2018-10-18T04:18:13.045Z,88.67
2018-10-18T04:19:23.186Z,88.86
2018-10-18T04:20:33.257Z,88.67
2018-10-18T04:21:43.381Z,88.57
2018-10-18T04:22:53.380Z,88.95
2018-10-18T04:24:03.527Z,88.86
2018-10-18T04:25:13.982Z,88.95
2018-10-18T04:26:23.867Z,89.05
2018-10-18T04:27:34.182Z,88.57
2018-10-18T04:28:44.315Z,88.67
2018-10-18T04:29:54.506Z,88.86
2018-10-18T04:31:05.025Z,88.57
2018-10-18T04:32:15.659Z,89.05
2018-10-18T04:33:25.749Z,88.86
2018-10-18T04:34:36.043Z,88.86
2018-10-18T04:35:46.303Z,88.57
2018-10-18T04:36:56.810Z,88.38
2018-10-18T04:38:08.234Z,88.48
2018-10-18T04:39:18.337Z,88.67
2018-10-18T04:40:28.683Z,88.57
2018-10-18T04:41:38.753Z,88.62
2018-10-18T04:42:49.035Z,88.38
2018-10-18T04:43:59.992Z,88.38
2018-10-18T04:45:10.097Z,88.67
2018-10-18T04:46:20.645Z,88.67
2018-10-18T04:47:30.607Z,88.76
2018-10-18T04:48:41.206Z,88.57
2018-10-18T04:49:51.999Z,88.52
2018-10-18T04:51:02.355Z,88.76
2018-10-18T04:52:12.916Z,88.57
2018-10-18T04:53:23.229Z,88.57
2018-10-18T04:54:33.318Z,88.57
2018-10-18T04:55:43.152Z,88.38
2018-10-18T04:56:53.393Z,88.38
2018-10-18T04:58:04.456Z,89.05
2018-10-18T04:59:14.771Z,88.67
2018-10-18T05:00:25.260Z,88.76
2018-10-18T05:01:35.715Z,88.86
2018-10-18T05:02:45.645Z,88.95
2018-10-18T05:03:55.231Z,88.48
2018-10-18T05:05:05.625Z,88.67
2018-10-18T05:06:15.463Z,88.67
2018-10-18T05:07:25.944Z,89.05
2018-10-18T05:08:36.770Z,88.95
2018-10-18T05:09:46.869Z,89.01
2018-10-18T05:10:56.752Z,89.1
2018-10-18T05:12:06.833Z,89.1
2018-10-18T05:13:17.334Z,89.01
2018-10-18T05:14:27.965Z,89.1
2018-10-18T05:15:38.409Z,88.91
2018-10-18T05:16:48.547Z,88.81
2018-10-18T05:17:58.771Z,88.81
2018-10-18T05:19:10.142Z,88.62
2018-10-18T05:20:21.242Z,88.53
2018-10-18T05:21:31.596Z,88.81
2018-10-18T05:22:41.936Z,88.81
2018-10-18T05:23:52.346Z,88.91
2018-10-18T05:25:02.368Z,88.81
2018-10-18T05:26:12.991Z,88.81
2018-10-18T05:27:23.116Z,89.2
2018-10-18T05:28:34.191Z,88.62
2018-10-18T05:29:44.608Z,88.34
2018-10-18T05:30:55.053Z,88.34
2018-10-18T05:32:05.617Z,88.53
2018-10-18T05:33:16.219Z,88.43
2018-10-18T05:34:26.857Z,88.53
2018-10-18T05:35:37.499Z,88.53
2018-10-18T05:36:47.869Z,88.62
2018-10-18T05:37:58.204Z,88.62
2018-10-18T05:39:08.345Z,88.53
2018-10-18T05:40:18.887Z,88.72
2018-10-18T05:41:29.298Z,88.62
2018-10-18T05:42:39.413Z,88.62
2018-10-18T05:43:49.739Z,88.72
2018-10-18T05:44:59.875Z,88.34
2018-10-18T05:46:09.952Z,88.15
2018-10-18T05:47:20.435Z,88.15
2018-10-18T05:48:30.786Z,88.34
2018-10-18T05:49:41.314Z,88.34
2018-10-18T05:50:51.600Z,87.86
2018-10-18T05:52:02.593Z,88.43
2018-10-18T05:53:13.422Z,88.34
2018-10-18T05:54:24.248Z,88.24
2018-10-18T05:55:34.360Z,88.24
2018-10-18T05:56:44.935Z,88.43
2018-10-18T05:57:55.109Z,88.15
2018-10-18T05:59:05.963Z,88.62
2018-10-18T06:00:16.606Z,88.43
2018-10-18T06:01:27.715Z,87.95
2018-10-18T06:02:38.063Z,88.34
2018-10-18T06:03:48.348Z,88.05
2018-10-18T06:04:58.467Z,88.15
2018-10-18T06:06:08.773Z,88.24
2018-10-18T06:07:19.980Z,88.15
2018-10-18T06:08:30.409Z,88.24
2018-10-18T06:09:41.031Z,88.43
2018-10-18T06:10:51.666Z,88.34
2018-10-18T06:12:01.971Z,88.24
2018-10-18T06:13:12.196Z,88.43
2018-10-18T06:14:22.392Z,88.43
2018-10-18T06:15:32.425Z,87.95
2018-10-18T06:16:42.686Z,88.34
2018-10-18T06:17:52.533Z,88.34
2018-10-18T06:19:02.709Z,88.24
2018-10-18T06:20:13.495Z,88.34
2018-10-18T06:21:23.672Z,88.15
2018-10-18T06:22:33.760Z,88.15
2018-10-18T06:23:44.025Z,88.24
2018-10-18T06:24:54.119Z,88.15
2018-10-18T06:26:04.502Z,88.05
2018-10-18T06:27:14.325Z,88.43
2018-10-18T06:28:24.441Z,88.43
2018-10-18T06:29:34.271Z,88.24
2018-10-18T06:30:44.343Z,88.05
2018-10-18T06:31:54.484Z,88.15
2018-10-18T06:33:04.723Z,88.24
2018-10-18T06:34:15.477Z,88.34
2018-10-18T06:35:25.577Z,88.34
2018-10-18T06:36:35.401Z,88.15
2018-10-18T06:37:45.263Z,87.38
2018-10-18T06:38:55.080Z,87.76
2018-10-18T06:40:05.288Z,87.48
2018-10-18T06:41:15.645Z,87.76
2018-10-18T06:42:26.090Z,87.86
2018-10-18T06:43:36.222Z,87.62
2018-10-18T06:44:46.307Z,87.52
2018-10-18T06:45:56.374Z,87.9
2018-10-18T06:47:06.687Z,87.71
2018-10-18T06:48:17.709Z,88
2018-10-18T06:49:28.146Z,87.9
2018-10-18T06:50:38.819Z,87.81
2018-10-18T06:51:48.637Z,87.62
2018-10-18T06:52:58.471Z,87.33
2018-10-18T06:54:08.745Z,87.33
2018-10-18T06:55:18.706Z,88
2018-10-18T06:56:28.878Z,87.52
2018-10-18T06:57:38.972Z,87.9
2018-10-18T06:58:49.050Z,87.43
2018-10-18T06:59:59.483Z,87.71
2018-10-18T07:01:10.250Z,87.52
2018-10-18T07:02:20.289Z,88
2018-10-18T07:03:30.389Z,87.23
2018-10-18T07:04:40.535Z,87.71
2018-10-18T07:05:50.612Z,87.04
2018-10-18T07:07:00.804Z,87.33
2018-10-18T07:08:10.900Z,87.9
2018-10-18T07:09:21.420Z,87.9
2018-10-18T07:10:31.495Z,87.04
2018-10-18T07:11:41.669Z,87.62
2018-10-18T07:12:51.703Z,87.95
2018-10-18T07:14:01.782Z,87.95
2018-10-18T07:15:11.591Z,87.85
2018-10-18T07:16:21.656Z,87.95
2018-10-18T07:17:31.610Z,87.47
2018-10-18T07:18:41.634Z,87.37
2018-10-18T07:19:51.510Z,87.47
2018-10-18T07:21:02.380Z,87.37
2018-10-18T07:22:12.657Z,87.76
2018-10-18T07:23:22.771Z,87.18
2018-10-18T07:24:32.924Z,87.56
2018-10-18T07:25:43.085Z,87.56
2018-10-18T07:26:53.229Z,87.18
2018-10-18T07:28:05.521Z,87.18
2018-10-18T07:29:15.397Z,87.08
2018-10-18T07:30:25.293Z,87.27
2018-10-18T07:31:35.358Z,87.37
2018-10-18T07:32:45.424Z,87.23
2018-10-18T07:33:55.505Z,87.66
2018-10-18T07:35:05.554Z,87.95
2018-10-18T07:36:15.869Z,87.9
2018-10-18T07:37:25.871Z,87.7
2018-10-18T07:38:36.018Z,87.8
2018-10-18T07:39:45.834Z,87.99
2018-10-18T07:40:55.930Z,87.61
2018-10-18T07:42:06.005Z,87.51
2018-10-18T07:43:16.498Z,87.51
2018-10-18T07:44:26.324Z,87.8
2018-10-18T07:45:36.421Z,87.7
2018-10-18T07:46:46.764Z,87.61
2018-10-18T07:47:57.276Z,87.99
2018-10-18T07:49:08.090Z,87.51
2018-10-18T07:50:18.246Z,88.09
2018-10-18T07:51:28.332Z,88.09
2018-10-18T07:52:38.415Z,87.8
2018-10-18T07:53:48.335Z,87.99
2018-10-18T07:54:58.474Z,87.7
2018-10-18T07:56:09.918Z,87.8
2018-10-18T07:57:20.015Z,87.37
2018-10-18T07:58:29.848Z,87.32
2018-10-18T07:59:39.951Z,87.32
2018-10-18T08:00:50.584Z,88.23
2018-10-18T08:02:01.262Z,87.55
2018-10-18T08:03:11.331Z,87.84
2018-10-18T08:04:21.416Z,87.65
2018-10-18T08:05:31.557Z,87.65
2018-10-18T08:06:41.643Z,87.65
2018-10-18T08:07:51.741Z,87.65
2018-10-18T08:09:03.355Z,87.27
2018-10-18T08:10:13.442Z,87.94
2018-10-18T08:11:23.567Z,87.55
2018-10-18T08:12:33.349Z,87.84
2018-10-18T08:13:43.539Z,87.46
2018-10-18T08:14:53.642Z,87.6
2018-10-18T08:16:03.465Z,87.02
2018-10-18T08:17:13.600Z,87.12
2018-10-18T08:18:23.931Z,87.12
2018-10-18T08:19:33.749Z,87.21
2018-10-18T08:20:43.835Z,87.21
2018-10-18T08:21:53.656Z,86.58
2018-10-18T08:23:03.776Z,86.58
2018-10-18T08:24:14.092Z,86.78
2018-10-18T08:25:24.221Z,86.49
2018-10-18T08:26:34.055Z,86.68
2018-10-18T08:27:44.153Z,86.88
2018-10-18T08:28:54.323Z,87.16
2018-10-18T08:30:05.245Z,87.26
2018-10-18T08:31:15.411Z,86.68
2018-10-18T08:32:26.536Z,87.68
2018-10-18T08:33:36.634Z,86.72
2018-10-18T08:34:46.774Z,87.3
2018-10-18T08:35:56.855Z,87.11
2018-10-18T08:37:07.093Z,87.21
2018-10-18T08:38:17.696Z,87.11
2018-10-18T08:39:28.028Z,87.59
2018-10-18T08:40:38.188Z,87.11
2018-10-18T08:41:48.293Z,87.11
2018-10-18T08:42:58.375Z,86.92
2018-10-18T08:44:09.075Z,86.19
2018-10-18T08:45:19.298Z,86.05
2018-10-18T08:46:29.370Z,86.33
2018-10-18T08:47:39.515Z,85.57
2018-10-18T08:48:49.334Z,85.99
2018-10-18T08:49:59.876Z,85.89
2018-10-18T08:51:09.874Z,85.51
2018-10-18T08:52:24.139Z,85.94
2018-10-18T08:53:34.291Z,85.94
2018-10-18T08:54:46.650Z,85.94
2018-10-18T08:56:00.036Z,86.13
2018-10-18T08:57:09.612Z,85.88
2018-10-18T08:58:19.770Z,85.88
2018-10-18T08:59:29.753Z,85.98
2018-10-18T09:00:39.846Z,85.88
2018-10-18T09:01:49.922Z,86.18
2018-10-18T09:02:59.751Z,86.36
2018-10-18T09:04:09.574Z,86.75
2018-10-18T09:05:19.426Z,86.75
2018-10-18T09:06:29.241Z,86.94
2018-10-18T09:07:39.357Z,86.65
2018-10-18T09:08:49.661Z,86.75
2018-10-18T09:09:59.849Z,86.94
2018-10-18T09:11:11.219Z,86.75
2018-10-18T09:12:21.292Z,86.41
2018-10-18T09:13:31.396Z,86.6
2018-10-18T09:14:41.527Z,86.69
2018-10-18T09:15:51.379Z,86.31
2018-10-18T09:17:02.666Z,86.6
2018-10-18T09:18:12.741Z,86.79
2018-10-18T09:19:22.570Z,86.6
2018-10-18T09:20:32.664Z,86.69
2018-10-18T09:21:42.775Z,86.45
2018-10-18T09:22:52.850Z,86.99
2018-10-18T09:24:03.583Z,87.08
2018-10-18T09:25:13.632Z,86.89
2018-10-18T09:26:24.179Z,87.46
2018-10-18T09:27:34.251Z,88
2018-10-18T09:28:44.319Z,88.19
2018-10-18T09:29:54.446Z,88
2018-10-18T09:31:04.685Z,88.19
2018-10-18T09:32:15.174Z,88.19
2018-10-18T09:33:25.246Z,88.19
2018-10-18T09:34:35.053Z,88
2018-10-18T09:35:45.531Z,88
2018-10-18T09:36:55.695Z,87.71
2018-10-18T09:38:05.715Z,87.9
2018-10-18T09:39:15.643Z,88.29
2018-10-18T09:40:25.750Z,87.37
2018-10-18T09:41:35.569Z,87.76
2018-10-18T09:42:45.661Z,87.37
2018-10-18T09:43:55.798Z,86.93
2018-10-18T09:45:06.077Z,86.74
2018-10-18T09:46:16.152Z,86.26
2018-10-18T09:47:26.243Z,86.59
2018-10-18T09:48:36.328Z,86.21
2018-10-18T09:49:46.229Z,85.96
2018-10-18T09:50:56.299Z,86.05
2018-10-18T09:52:06.387Z,86.05
2018-10-18T09:53:16.218Z,85.96
2018-10-18T09:54:26.307Z,86.35
2018-10-18T09:55:36.622Z,86.25
2018-10-18T09:56:47.149Z,86.25
2018-10-18T09:57:57.248Z,86.05
2018-10-18T09:59:08.660Z,86.1
2018-10-18T10:00:18.729Z,86
2018-10-18T10:01:29.092Z,85.91
2018-10-18T10:02:39.184Z,86.19
2018-10-18T10:03:48.777Z,86.68
2018-10-18T10:04:58.598Z,86.58
2018-10-18T10:06:08.441Z,86.92
2018-10-18T10:07:18.950Z,87.12
2018-10-18T10:08:29.063Z,87.12
2018-10-18T10:09:39.159Z,87.88
2018-10-18T10:10:48.973Z,87.12
2018-10-18T10:11:59.098Z,87.02
2018-10-18T10:13:09.885Z,87.02
2018-10-18T10:14:20.803Z,86.87
2018-10-18T10:15:30.632Z,86.77
2018-10-18T10:16:40.748Z,86.87
2018-10-18T10:17:51.161Z,86.77
2018-10-18T10:19:02.315Z,86.24
2018-10-18T10:20:12.874Z,86.43
2018-10-18T10:21:22.702Z,86.43
2018-10-18T10:22:32.804Z,86.24
2018-10-18T10:23:42.883Z,86.24
2018-10-18T10:24:53.037Z,86.47
2018-10-18T10:26:03.777Z,86.38
2018-10-18T10:27:13.852Z,86.18
2018-10-18T10:28:23.667Z,86.47
2018-10-18T10:29:33.772Z,86.38
2018-10-18T10:30:43.877Z,86.08
2018-10-18T10:31:53.709Z,86.66
2018-10-18T10:33:04.152Z,86.86
2018-10-18T10:34:14.383Z,86.86
2018-10-18T10:35:24.313Z,86.76
2018-10-18T10:36:34.755Z,86.42
2018-10-18T10:37:44.852Z,86.32
2018-10-18T10:38:54.933Z,86.22
2018-10-18T10:40:06.094Z,86.9
2018-10-18T10:41:17.556Z,86.8
2018-10-18T10:42:29.407Z,86.9
2018-10-18T10:43:39.505Z,86.61
2018-10-18T10:44:49.663Z,86.71
2018-10-18T10:46:00.119Z,86.61
2018-10-18T10:47:10.646Z,87
2018-10-18T10:48:21.166Z,86.9
2018-10-18T10:49:31.314Z,87
2018-10-18T10:50:41.518Z,86.9
2018-10-18T10:51:51.338Z,86.8
2018-10-18T10:53:01.512Z,86.52
2018-10-18T10:54:11.580Z,86.52
2018-10-18T10:55:22.223Z,86.71
2018-10-18T10:56:32.303Z,86.61
2018-10-18T10:57:42.417Z,86.65
2018-10-18T10:58:52.646Z,87.04
2018-10-18T11:00:03.286Z,86.94
2018-10-18T11:01:13.794Z,86.46
2018-10-18T11:02:23.971Z,86.75
2018-10-18T11:03:34.553Z,86.94
2018-10-18T11:04:44.653Z,86.56
2018-10-18T11:05:54.771Z,86.56
2018-10-18T11:07:06.138Z,86.75
2018-10-18T11:08:16.593Z,86.46
2018-10-18T11:09:27.061Z,86.46
2018-10-18T11:10:37.557Z,86.46
2018-10-18T11:11:47.797Z,86.27
2018-10-18T11:12:57.916Z,86.85
2018-10-18T11:14:08.205Z,86.85
2018-10-18T11:15:18.772Z,86.75
2018-10-18T11:16:30.169Z,86.65
2018-10-18T11:17:43.469Z,86.21
2018-10-18T11:18:57.268Z,86.21
2018-10-18T11:20:09.135Z,86.11
2018-10-18T11:21:21.301Z,86.21
2018-10-18T11:22:31.636Z,86.45
2018-10-18T11:23:41.472Z,86.25
2018-10-18T11:24:51.854Z,86.25
2018-10-18T11:26:02.970Z,86.35
2018-10-18T11:27:13.867Z,86.65
2018-10-18T11:28:23.701Z,86.99
2018-10-18T11:29:33.796Z,86.79
2018-10-18T11:30:43.906Z,87.47
2018-10-18T11:31:54.076Z,87.08
2018-10-18T11:33:06.797Z,87.08
2018-10-18T11:34:17.098Z,87.13
2018-10-18T11:35:27.410Z,86.79
2018-10-18T11:36:37.559Z,86.99
2018-10-18T11:37:47.635Z,86.99
2018-10-18T11:38:57.967Z,86.6
2018-10-18T11:40:08.760Z,86.89
2018-10-18T11:41:18.605Z,87.08
2018-10-18T11:42:28.828Z,86.51
2018-10-18T11:43:39.157Z,86.69
2018-10-18T11:44:49.245Z,86.21
2018-10-18T11:45:59.062Z,86.93
2018-10-18T11:47:10.452Z,86.55
2018-10-18T11:48:20.593Z,87.03
2018-10-18T11:49:30.774Z,87.13
2018-10-18T11:50:40.966Z,87.03
2018-10-18T11:51:51.008Z,86.74
2018-10-18T11:53:00.783Z,87.03
2018-10-18T11:54:11.319Z,86.93
2018-10-18T11:55:21.957Z,86.55
2018-10-18T11:56:32.030Z,86.25
2018-10-18T11:57:41.862Z,86.35
2018-10-18T11:58:51.961Z,86.25
2018-10-18T12:00:02.209Z,86.45
2018-10-18T12:01:12.193Z,86.25
2018-10-18T12:02:23.094Z,86.06
2018-10-18T12:03:33.377Z,86.25
2018-10-18T12:04:43.484Z,86.35
2018-10-18T12:05:53.582Z,86.65
2018-10-18T12:07:03.685Z,86.83
2018-10-18T12:08:14.060Z,86.74
2018-10-18T12:09:24.391Z,86.83
2018-10-18T12:10:34.477Z,86.55
2018-10-18T12:11:44.610Z,86.65
2018-10-18T12:12:54.687Z,86.55
2018-10-18T12:14:04.381Z,86.55
2018-10-18T12:15:14.959Z,86.4
2018-10-18T12:16:25.282Z,86.59
2018-10-18T12:17:35.362Z,86.25
2018-10-18T12:18:45.536Z,86.4
2018-10-18T12:19:55.789Z,86.49
2018-10-18T12:21:06.077Z,86.4
2018-10-18T12:22:15.933Z,86.69
2018-10-18T12:23:26.034Z,86.49
2018-10-18T12:24:36.135Z,87.17
2018-10-18T12:25:46.248Z,86.69
2018-10-18T12:26:56.415Z,86.49
2018-10-18T12:28:07.156Z,86.1
2018-10-18T12:29:17.689Z,86.4
2018-10-18T12:30:28.238Z,86.4
2018-10-18T12:31:38.347Z,86.3
2018-10-18T12:32:48.211Z,86.3
2018-10-18T12:33:58.051Z,86.49
2018-10-18T12:35:09.217Z,86.4
2018-10-18T12:36:19.447Z,86.69
2018-10-18T12:37:29.287Z,86.59
2018-10-18T12:38:39.384Z,86.4
2018-10-18T12:39:49.207Z,86.4
2018-10-18T12:40:59.687Z,86.78
2018-10-18T12:42:10.737Z,86.59
2018-10-18T12:43:20.824Z,87.07
2018-10-18T12:44:30.838Z,86.98
2018-10-18T12:45:40.938Z,86.78
2018-10-18T12:46:51.069Z,87.27
2018-10-18T12:48:02.987Z,86.88
2018-10-18T12:49:13.284Z,87.07
2018-10-18T12:50:23.478Z,87.07
2018-10-18T12:51:33.576Z,87.07
2018-10-18T12:52:43.462Z,87.12
2018-10-18T12:53:53.534Z,87.27
2018-10-18T12:55:03.859Z,86.98
2018-10-18T12:56:14.124Z,87.36
2018-10-18T12:57:24.703Z,87.46
2018-10-18T12:58:34.796Z,87.46
2018-10-18T12:59:44.632Z,87.36
2018-10-18T13:00:54.745Z,87.27
2018-10-18T13:02:05.064Z,86.98
2018-10-18T13:03:15.754Z,87.36
2018-10-18T13:04:25.905Z,87.85
2018-10-18T13:05:36.015Z,88.04
2018-10-18T13:06:45.850Z,87.32
2018-10-18T13:07:55.682Z,87.46
2018-10-18T13:09:07.453Z,87.65
2018-10-18T13:10:17.283Z,87.46
2018-10-18T13:11:27.145Z,87.65
2018-10-18T13:12:37.522Z,87.55
2018-10-18T13:13:48.468Z,87.55
2018-10-18T13:14:58.630Z,87.65
2018-10-18T13:16:08.712Z,87.65
2018-10-18T13:17:18.824Z,87.65
2018-10-18T13:18:28.926Z,87.07
2018-10-18T13:19:39.029Z,87.55
2018-10-18T13:20:49.155Z,86.98
2018-10-18T13:21:59.249Z,86.98
2018-10-18T13:23:09.057Z,86.98
2018-10-18T13:24:18.901Z,87.27
2018-10-18T13:25:29.399Z,87.65
2018-10-18T13:26:39.610Z,87.32
2018-10-18T13:27:49.692Z,87.61
2018-10-18T13:28:59.834Z,87.85
2018-10-18T13:30:10.864Z,88.05
2018-10-18T13:31:21.321Z,88.53
2018-10-18T13:32:31.462Z,88.63
2018-10-18T13:33:41.304Z,88.1
2018-10-18T13:34:51.385Z,88.01
2018-10-18T13:36:01.579Z,88.78
2018-10-18T13:37:12.098Z,88.59
2018-10-18T13:38:22.187Z,88.29
2018-10-18T13:39:31.754Z,88.97
2018-10-18T13:40:42.025Z,88.68
2018-10-18T13:41:52.614Z,88.59
2018-10-18T13:43:02.883Z,88.54
2018-10-18T13:44:13.316Z,88.64
2018-10-18T13:45:23.800Z,88.64
2018-10-18T13:46:33.936Z,88.73
2018-10-18T13:47:44.186Z,88.54
2018-10-18T13:48:54.278Z,88.83
2018-10-18T13:50:05.487Z,88.64
2018-10-18T13:51:15.726Z,88.45
2018-10-18T13:52:25.808Z,88.73
2018-10-18T13:53:35.901Z,88.83
2018-10-18T13:54:45.723Z,88.54
2018-10-18T13:55:56.190Z,88.69
2018-10-18T13:57:06.473Z,88.54
2018-10-18T13:58:16.553Z,88.59
2018-10-18T13:59:27.179Z,88.69
2018-10-18T14:00:37.984Z,88.54
2018-10-18T14:01:48.424Z,88.15
2018-10-18T14:02:58.520Z,87.96
2018-10-18T14:04:08.615Z,88.06
2018-10-18T14:05:18.531Z,87.71
2018-10-18T14:06:28.952Z,87.62
2018-10-18T14:07:39.059Z,87.71
2018-10-18T14:08:49.423Z,87.91
2018-10-18T14:09:59.530Z,87.62
2018-10-18T14:11:09.790Z,87.81
2018-10-18T14:12:20.011Z,87.71
2018-10-18T14:13:29.581Z,88.29
2018-10-18T14:14:39.663Z,87.91
2018-10-18T14:15:49.505Z,88.29
2018-10-18T14:16:59.699Z,88.01
2018-10-18T14:18:10.421Z,88.1
2018-10-18T14:19:20.293Z,87.81
2018-10-18T14:20:30.358Z,88.45
2018-10-18T14:21:40.464Z,87.81
2018-10-18T14:22:50.537Z,88.1
2018-10-18T14:24:01.010Z,88.59
2018-10-18T14:25:11.133Z,88.15
2018-10-18T14:26:20.963Z,87.71
2018-10-18T14:27:30.607Z,87.71
2018-10-18T14:28:40.693Z,87.81
2018-10-18T14:29:50.794Z,88.2
2018-10-18T14:31:01.167Z,87.91
2018-10-18T14:32:11.691Z,88.1
2018-10-18T14:33:22.431Z,88.1
2018-10-18T14:34:32.539Z,88.01
2018-10-18T14:35:42.623Z,88.01
2018-10-18T14:36:52.511Z,87.81
2018-10-18T14:38:02.862Z,88.1
2018-10-18T14:39:13.432Z,87.81
2018-10-18T14:40:23.530Z,88.39
2018-10-18T14:41:33.599Z,88.01
2018-10-18T14:42:43.694Z,88.01
2018-10-18T14:43:53.930Z,88.06
2018-10-18T14:45:04.915Z,88.78
2018-10-18T14:46:15.313Z,88.49
2018-10-18T14:47:25.996Z,88.54
2018-10-18T14:48:36.620Z,88.93
2018-10-18T14:49:46.460Z,88.64
2018-10-18T14:50:56.406Z,88.64
2018-10-18T14:52:06.630Z,88.54
2018-10-18T14:53:17.348Z,88.35
2018-10-18T14:54:27.634Z,88.83
2018-10-18T14:55:37.460Z,88.89
2018-10-18T14:56:47.533Z,89.17
2018-10-18T14:57:57.636Z,89.07
2018-10-18T14:59:07.970Z,89.07
2018-10-18T15:00:18.356Z,89.17
2018-10-18T15:01:28.457Z,88.98
2018-10-18T15:02:38.283Z,88.69
2018-10-18T15:03:48.376Z,89.27
2018-10-18T15:04:58.075Z,89.27
2018-10-18T15:06:10.298Z,89.27
2018-10-18T15:07:20.140Z,88.69
2018-10-18T15:08:29.966Z,89.37
2018-10-18T15:09:40.084Z,89.27
2018-10-18T15:10:50.183Z,89.32
2018-10-18T15:12:01.347Z,89.51
2018-10-18T15:13:11.481Z,89.32
2018-10-18T15:14:21.302Z,89.32
2018-10-18T15:15:31.387Z,89.32
2018-10-18T15:16:41.193Z,89.13
2018-10-18T15:17:52.094Z,89.9
2018-10-18T15:19:02.338Z,89.57
2018-10-18T15:20:12.022Z,89.57
2018-10-18T15:21:22.205Z,89.67
2018-10-18T15:22:32.300Z,89.37
2018-10-18T15:23:42.454Z,89.37
2018-10-18T15:24:52.549Z,89.76
2018-10-18T15:26:02.877Z,89.76
2018-10-18T15:27:13.454Z,89.37
2018-10-18T15:28:23.619Z,89.76
2018-10-18T15:29:33.734Z,89.86
2018-10-18T15:30:43.827Z,89.76
2018-10-18T15:31:54.033Z,89.43
2018-10-18T15:33:05.126Z,89.43
2018-10-18T15:34:15.793Z,89.53
2018-10-18T15:35:25.971Z,89.53
2018-10-18T15:36:36.125Z,89.91
2018-10-18T15:37:46.322Z,90
2018-10-18T15:38:57.070Z,89.91
2018-10-18T15:40:07.875Z,89.77